createdAt,value
2023-01-20T00:01:12.176Z,13.77
2023-01-20T00:03:41.976Z,18.42
2023-01-20T00:06:10.640Z,15.82
2023-01-20T00:08:38.816Z,15.65
2023-01-20T00:11:07.638Z,13.73
2023-01-20T00:13:35.719Z,14.73
2023-01-20T00:16:04.484Z,13.15
2023-01-20T00:18:33.402Z,14.20
2023-01-20T00:21:05.520Z,14.65
2023-01-20T00:23:33.835Z,15.27
2023-01-20T00:26:05.863Z,19.55
2023-01-20T00:28:33.871Z,12.00
2023-01-20T00:31:12.113Z,13.00
2023-01-20T00:33:39.947Z,13.43
2023-01-20T00:36:09.848Z,15.85
2023-01-20T00:38:37.851Z,17.80
2023-01-20T00:41:05.894Z,15.25
2023-01-20T00:43:33.879Z,15.05
2023-01-20T00:46:02.077Z,14.00
2023-01-20T00:48:29.970Z,14.98
2023-01-20T00:50:57.759Z,12.43
2023-01-20T00:53:26.960Z,12.52
2023-01-20T00:55:54.934Z,18.60
2023-01-20T00:58:22.784Z,15.68
2023-01-20T01:00:51.803Z,16.88
2023-01-20T01:03:19.974Z,14.82
2023-01-20T01:05:48.199Z,13.35
2023-01-20T01:08:16.470Z,13.73
2023-01-20T01:10:45.664Z,16.10
2023-01-20T01:13:13.517Z,16.20
2023-01-20T01:15:41.361Z,17.40
2023-01-20T01:18:09.115Z,15.68
2023-01-20T01:20:40.349Z,15.60
2023-01-20T01:23:08.131Z,14.60
2023-01-20T01:25:35.895Z,15.57
2023-01-20T01:28:06.977Z,15.18
2023-01-20T01:30:34.869Z,13.32
2023-01-20T01:33:02.611Z,16.17
2023-01-20T01:35:30.430Z,16.73
2023-01-20T01:37:58.449Z,15.27
2023-01-20T01:40:26.276Z,12.45
2023-01-20T01:42:54.038Z,16.08
2023-01-20T01:45:29.472Z,13.48
2023-01-20T01:48:02.510Z,15.20
2023-01-20T01:50:36.244Z,19.38
2023-01-20T01:53:04.398Z,14.43
2023-01-20T01:55:35.963Z,11.25
2023-01-20T01:58:06.783Z,14.43
2023-01-20T02:00:36.077Z,8.65
2023-01-20T02:03:04.083Z,10.07
2023-01-20T02:05:32.154Z,11.38
2023-01-20T02:08:00.572Z,11.88
2023-01-20T02:10:28.532Z,17.02
2023-01-20T02:12:56.391Z,10.77
2023-01-20T02:15:29.050Z,9.85
2023-01-20T02:18:21.550Z,10.65
2023-01-20T02:21:23.779Z,10.98
2023-01-20T02:27:09.298Z,13.05
2023-01-20T02:30:09.201Z,10.90
2023-01-20T02:32:48.172Z,10.15
2023-01-20T02:35:25.759Z,9.55
2023-01-20T02:38:04.755Z,12.90
2023-01-20T02:40:40.163Z,10.07
2023-01-20T02:43:12.877Z,9.80
2023-01-20T02:45:49.075Z,10.20
2023-01-20T02:48:25.657Z,11.55
2023-01-20T02:51:01.415Z,9.30
2023-01-20T02:53:37.330Z,13.25
2023-01-20T02:56:06.370Z,12.90
2023-01-20T02:58:40.733Z,10.30
2023-01-20T03:01:13.448Z,13.48
2023-01-20T03:03:46.982Z,9.48
2023-01-20T03:06:19.954Z,14.75
2023-01-20T03:08:52.409Z,11.80
2023-01-20T03:11:21.040Z,10.45
2023-01-20T03:13:54.936Z,11.93
2023-01-20T03:16:25.256Z,10.70
2023-01-20T03:18:55.754Z,11.40
2023-01-20T03:21:24.347Z,11.52
2023-01-20T03:23:54.457Z,14.52
2023-01-20T03:26:24.050Z,10.18
2023-01-20T03:28:52.253Z,12.68
2023-01-20T03:31:25.165Z,13.23
2023-01-20T03:33:58.685Z,13.60
2023-01-20T03:36:29.074Z,11.63
2023-01-20T03:38:58.643Z,12.30
2023-01-20T03:41:36.555Z,10.45
2023-01-20T03:44:12.455Z,11.15
2023-01-20T03:46:47.276Z,12.13
2023-01-20T03:49:25.592Z,11.43
2023-01-20T03:52:01.986Z,11.02
2023-01-20T03:54:36.570Z,22.65
2023-01-20T03:57:09.423Z,13.02
2023-01-20T03:59:39.954Z,12.77
2023-01-20T04:02:09.366Z,11.63
2023-01-20T04:04:41.847Z,9.98
2023-01-20T04:07:13.549Z,12.35
2023-01-20T04:09:46.271Z,15.55
2023-01-20T04:12:14.701Z,13.13
2023-01-20T04:14:42.522Z,12.45
2023-01-20T04:17:11.007Z,11.27
2023-01-20T04:19:40.467Z,11.80
2023-01-20T04:22:13.487Z,13.77
2023-01-20T04:24:46.660Z,14.48
2023-01-20T04:27:14.815Z,15.20
2023-01-20T04:29:42.949Z,12.73
2023-01-20T04:32:12.465Z,15.40
2023-01-20T04:34:41.781Z,14.30
2023-01-20T04:37:09.591Z,11.48
2023-01-20T04:39:37.679Z,14.55
2023-01-20T04:42:05.547Z,12.13
2023-01-20T04:44:33.367Z,13.20
2023-01-20T04:47:01.161Z,12.82
2023-01-20T04:49:29.306Z,10.80
2023-01-20T04:51:59.873Z,10.68
2023-01-20T04:54:27.745Z,13.65
2023-01-20T04:56:55.577Z,10.23
2023-01-20T04:59:23.831Z,8.18
2023-01-20T05:01:51.751Z,8.98
2023-01-20T05:04:19.857Z,10.40
2023-01-20T05:06:47.705Z,11.50
2023-01-20T05:09:18.187Z,16.50
2023-01-20T05:11:45.946Z,11.35
2023-01-20T05:14:14.325Z,11.02
2023-01-20T05:16:42.963Z,16.98
2023-01-20T05:19:12.151Z,11.40
2023-01-20T05:21:40.285Z,15.88
2023-01-20T05:24:08.344Z,12.88
2023-01-20T05:26:37.430Z,10.57
2023-01-20T05:29:05.382Z,12.82
2023-01-20T05:31:33.292Z,13.07
2023-01-20T05:34:01.053Z,12.10
2023-01-20T05:36:29.383Z,9.95
2023-01-20T05:38:57.162Z,12.52
2023-01-20T05:41:24.999Z,13.40
2023-01-20T05:43:55.646Z,12.13
2023-01-20T05:46:23.890Z,12.27
2023-01-20T05:48:51.734Z,12.30
2023-01-20T05:51:19.857Z,16.60
2023-01-20T05:53:47.660Z,10.52
2023-01-20T05:56:16.246Z,12.25
2023-01-20T05:58:44.080Z,11.88
2023-01-20T06:01:15.011Z,11.65
2023-01-20T06:03:43.347Z,14.17
2023-01-20T06:06:15.644Z,9.93
2023-01-20T06:08:43.955Z,10.18
2023-01-20T06:11:11.942Z,8.80
2023-01-20T06:13:40.130Z,9.30
2023-01-20T06:16:08.729Z,14.50
2023-01-20T06:18:37.979Z,13.38
2023-01-20T06:21:06.101Z,12.73
2023-01-20T06:23:33.890Z,10.85
2023-01-20T06:26:03.040Z,11.27
2023-01-20T06:28:32.890Z,11.20
2023-01-20T06:31:02.324Z,14.05
2023-01-20T06:33:30.487Z,12.85
2023-01-20T06:36:00.205Z,10.35
2023-01-20T06:38:30.107Z,11.57
2023-01-20T06:40:58.940Z,13.45
2023-01-20T06:43:26.783Z,13.88
2023-01-20T06:45:54.605Z,12.35
2023-01-20T06:48:22.447Z,11.10
2023-01-20T06:50:50.306Z,10.00
2023-01-20T06:53:19.486Z,13.43
2023-01-20T06:55:56.503Z,9.63
2023-01-20T06:58:25.584Z,12.02
2023-01-20T07:00:53.745Z,11.35
2023-01-20T07:03:21.580Z,18.17
2023-01-20T07:05:57.004Z,15.40
2023-01-20T07:08:26.160Z,14.73
2023-01-20T07:10:53.937Z,13.07
2023-01-20T07:13:21.732Z,12.68
2023-01-20T07:15:49.678Z,13.27
2023-01-20T07:18:17.475Z,11.07
2023-01-20T07:20:45.205Z,11.60
2023-01-20T07:23:12.996Z,11.75
2023-01-20T07:25:42.196Z,12.52
2023-01-20T07:28:10.315Z,11.85
2023-01-20T07:30:38.086Z,9.23
2023-01-20T07:33:06.008Z,9.10
2023-01-20T07:35:52.845Z,10.13
2023-01-20T07:38:20.689Z,12.73
2023-01-20T07:40:49.865Z,11.38
2023-01-20T07:43:17.609Z,11.57
2023-01-20T07:45:45.340Z,11.02
2023-01-20T07:48:13.074Z,12.75
2023-01-20T07:50:40.845Z,10.82
2023-01-20T07:53:08.755Z,10.60
2023-01-20T07:55:36.536Z,7.88
2023-01-20T07:58:05.696Z,9.57
2023-01-20T08:00:33.523Z,11.65
2023-01-20T08:03:01.276Z,42.47
2023-01-20T08:05:29.024Z,13.07
2023-01-20T08:07:56.784Z,9.65
2023-01-20T08:10:24.668Z,8.63
2023-01-20T08:12:52.583Z,7.72
2023-01-20T08:15:21.798Z,10.80
2023-01-20T08:17:54.606Z,11.18
2023-01-20T08:20:22.757Z,9.98
2023-01-20T08:22:50.562Z,16.48
2023-01-20T08:25:18.326Z,7.80
2023-01-20T08:27:48.509Z,8.20
2023-01-20T08:30:16.735Z,7.10
2023-01-20T08:32:45.846Z,10.05
2023-01-20T08:35:14.019Z,8.85
2023-01-20T08:37:41.994Z,7.35
2023-01-20T08:40:11.571Z,7.07
2023-01-20T08:42:40.057Z,7.80
2023-01-20T08:45:09.965Z,7.13
2023-01-20T08:47:38.277Z,8.65
2023-01-20T08:50:08.678Z,7.13
2023-01-20T08:52:36.412Z,12.32
2023-01-20T08:55:04.245Z,8.73
2023-01-20T08:57:32.050Z,9.00
2023-01-20T08:59:59.829Z,6.55
2023-01-20T09:02:27.917Z,12.77
2023-01-20T09:04:55.675Z,8.20
2023-01-20T09:07:24.843Z,8.15
2023-01-20T09:09:52.615Z,7.88
2023-01-20T09:12:20.358Z,7.07
2023-01-20T09:14:48.157Z,9.13
2023-01-20T09:17:16.211Z,9.88
2023-01-20T09:19:44.019Z,8.30
2023-01-20T09:22:12.066Z,8.30
2023-01-20T09:24:41.432Z,6.47
2023-01-20T09:27:09.317Z,9.05
2023-01-20T09:29:37.101Z,12.45
2023-01-20T09:32:05.276Z,10.50
2023-01-20T09:34:34.224Z,12.85
2023-01-20T09:37:23.315Z,19.60
2023-01-20T09:40:09.891Z,8.23
2023-01-20T09:43:07.852Z,6.95
2023-01-20T09:45:39.901Z,7.78
2023-01-20T09:48:28.281Z,13.57
2023-01-20T09:51:22.044Z,9.95
2023-01-20T09:53:55.616Z,10.88
2023-01-20T09:56:27.074Z,12.27
2023-01-20T09:59:00.267Z,7.80
2023-01-20T10:01:35.854Z,11.75
2023-01-20T10:04:10.667Z,7.75
2023-01-20T10:06:45.705Z,22.13
2023-01-20T10:09:23.450Z,9.65
2023-01-20T10:11:57.229Z,15.43
2023-01-20T10:14:30.838Z,8.70
2023-01-20T10:17:06.618Z,14.10
2023-01-20T10:19:39.941Z,10.65
2023-01-20T10:22:12.955Z,19.73
2023-01-20T10:24:48.899Z,14.55
2023-01-20T10:27:18.012Z,21.80
2023-01-20T10:29:50.824Z,11.32
2023-01-20T10:32:30.938Z,19.15
2023-01-20T10:35:00.695Z,20.13
2023-01-20T10:37:30.785Z,16.27
2023-01-20T10:40:07.449Z,13.98
2023-01-20T10:42:36.624Z,14.13
2023-01-20T10:45:04.657Z,14.88
2023-01-20T10:47:44.826Z,22.80
2023-01-20T10:50:41.946Z,9.05
2023-01-20T10:53:29.275Z,12.25
2023-01-20T10:56:26.907Z,14.93
2023-01-20T10:58:57.820Z,21.90
2023-01-20T11:01:26.231Z,13.52
2023-01-20T11:03:54.076Z,13.88
2023-01-20T11:06:26.692Z,11.88
2023-01-20T11:08:55.687Z,10.25
2023-01-20T11:11:26.993Z,18.02
2023-01-20T11:13:57.591Z,10.15
2023-01-20T11:16:28.955Z,11.15
2023-01-20T11:18:59.574Z,10.20
2023-01-20T11:21:29.172Z,12.75
2023-01-20T11:23:58.372Z,17.65
2023-01-20T11:26:28.771Z,11.15
2023-01-20T11:29:00.125Z,15.60
2023-01-20T11:31:42.440Z,8.25
2023-01-20T11:34:24.274Z,13.07
2023-01-20T11:37:11.630Z,12.90
2023-01-20T11:39:45.580Z,25.08
2023-01-20T11:42:17.342Z,10.15
2023-01-20T11:44:47.368Z,13.98
2023-01-20T11:47:24.025Z,17.58
2023-01-20T11:50:26.475Z,13.00
2023-01-20T11:52:54.325Z,19.42
2023-01-20T11:55:24.212Z,27.50
2023-01-20T11:57:54.691Z,18.05
2023-01-20T12:00:40.620Z,12.10
2023-01-20T12:03:27.821Z,15.60
2023-01-20T12:06:01.233Z,19.52
2023-01-20T12:08:36.137Z,14.00
2023-01-20T12:11:08.399Z,15.23
2023-01-20T12:13:56.276Z,23.20
2023-01-20T12:16:28.800Z,9.85
2023-01-20T12:19:02.216Z,13.70
2023-01-20T12:21:36.461Z,16.15
2023-01-20T12:24:10.974Z,21.02
2023-01-20T12:26:38.735Z,28.48
2023-01-20T12:29:14.953Z,12.02
2023-01-20T12:31:48.876Z,10.93
2023-01-20T12:34:18.770Z,13.35
2023-01-20T12:37:04.171Z,15.90
2023-01-20T12:40:05.120Z,13.00
2023-01-20T12:42:50.523Z,17.90
2023-01-20T12:45:33.124Z,16.02
2023-01-20T12:48:15.384Z,17.13
2023-01-20T12:50:59.265Z,25.80
2023-01-20T12:53:40.686Z,12.68
2023-01-20T12:56:19.685Z,20.80
2023-01-20T12:58:57.261Z,11.10
2023-01-20T13:01:41.156Z,25.30
2023-01-20T13:04:53.465Z,13.75
2023-01-20T13:07:48.281Z,12.98
2023-01-20T13:10:28.288Z,12.25
2023-01-20T13:13:01.709Z,20.10
2023-01-20T13:15:31.221Z,22.27
2023-01-20T13:18:16.481Z,12.65
2023-01-20T13:20:46.550Z,13.75
2023-01-20T13:23:17.399Z,16.90
2023-01-20T13:25:46.865Z,20.13
2023-01-20T13:28:19.496Z,15.35
2023-01-20T13:30:51.084Z,13.30
2023-01-20T13:33:32.595Z,27.88
2023-01-20T13:36:01.154Z,14.47
2023-01-20T13:38:33.613Z,11.05
2023-01-20T13:41:06.037Z,12.15
2023-01-20T13:43:46.983Z,15.02
2023-01-20T13:46:49.545Z,14.75
2023-01-20T13:51:58.838Z,10.48
2023-01-20T13:54:57.046Z,16.33
2023-01-20T13:57:46.002Z,13.80
2023-01-20T14:00:23.763Z,11.52
2023-01-20T14:02:53.079Z,14.43
2023-01-20T14:05:27.428Z,13.10
2023-01-20T14:07:55.496Z,13.05
2023-01-20T14:10:25.706Z,16.80
2023-01-20T14:12:53.555Z,16.08
2023-01-20T14:15:40.968Z,14.73
2023-01-20T14:18:17.018Z,17.27
2023-01-20T14:20:57.908Z,17.52
2023-01-20T14:23:29.211Z,19.98
2023-01-20T14:26:21.084Z,18.30
2023-01-20T14:28:51.452Z,20.23
2023-01-20T14:31:22.197Z,18.40
2023-01-20T14:33:55.333Z,16.33
2023-01-20T14:36:24.382Z,13.88
2023-01-20T14:38:58.511Z,16.83
2023-01-20T14:41:48.447Z,17.45
2023-01-20T14:44:19.840Z,24.98
2023-01-20T14:46:49.875Z,15.85
2023-01-20T14:49:20.325Z,22.15
2023-01-20T14:51:50.436Z,15.50
2023-01-20T14:54:39.682Z,15.15
2023-01-20T14:57:30.158Z,20.98
2023-01-20T15:00:18.909Z,18.98
2023-01-20T15:03:01.403Z,15.43
2023-01-20T15:05:40.416Z,17.17
2023-01-20T15:08:24.343Z,18.67
2023-01-20T15:11:23.023Z,22.98
2023-01-20T15:14:10.146Z,14.45
2023-01-20T15:16:51.966Z,13.52
2023-01-20T15:19:31.406Z,17.67
2023-01-20T15:22:18.697Z,15.10
2023-01-20T15:24:49.440Z,17.40
2023-01-20T15:27:26.791Z,24.35
2023-01-20T15:30:04.853Z,16.02
2023-01-20T15:32:33.853Z,20.17
2023-01-20T15:35:01.650Z,19.15
2023-01-20T15:37:29.574Z,15.68
2023-01-20T15:39:58.996Z,18.35
2023-01-20T15:42:26.874Z,17.30
2023-01-20T15:44:54.709Z,18.85
2023-01-20T15:47:30.806Z,21.10
2023-01-20T15:49:58.739Z,58.35
2023-01-20T15:52:27.148Z,18.40
2023-01-20T15:54:55.075Z,17.00
2023-01-20T15:57:22.960Z,16.50
2023-01-20T15:59:50.749Z,18.65
2023-01-20T16:02:19.409Z,14.30
2023-01-20T16:04:48.716Z,13.95
2023-01-20T16:07:19.064Z,14.93
2023-01-20T16:09:47.318Z,13.48
2023-01-20T16:12:15.680Z,19.63
2023-01-20T16:14:44.252Z,15.50
2023-01-20T16:17:16.988Z,12.85
2023-01-20T16:19:45.259Z,15.35
2023-01-20T16:22:14.608Z,17.00
2023-01-20T16:24:42.430Z,16.33
2023-01-20T16:27:18.222Z,13.98
2023-01-20T16:29:47.690Z,16.02
2023-01-20T16:32:18.187Z,13.93
2023-01-20T16:34:47.200Z,14.10
2023-01-20T16:37:16.426Z,15.38
2023-01-20T16:39:44.210Z,16.17
2023-01-20T16:42:13.263Z,17.75
2023-01-20T16:44:41.613Z,25.27
2023-01-20T16:47:09.468Z,16.25
2023-01-20T16:49:38.951Z,19.90
2023-01-20T16:52:08.388Z,20.20
2023-01-20T16:54:37.505Z,16.88
2023-01-20T16:57:05.549Z,21.00
2023-01-20T16:59:33.293Z,18.02
2023-01-20T17:02:01.215Z,18.35
2023-01-20T17:04:29.463Z,23.50
2023-01-20T17:06:57.259Z,21.58
2023-01-20T17:09:25.124Z,19.33
2023-01-20T17:11:54.387Z,19.73
2023-01-20T17:14:22.176Z,17.45
2023-01-20T17:16:49.966Z,18.88
2023-01-20T17:19:17.961Z,16.88
2023-01-20T17:21:45.910Z,15.77
2023-01-20T17:24:13.732Z,16.27
2023-01-20T17:26:41.476Z,20.35
2023-01-20T17:29:11.888Z,27.15
2023-01-20T17:31:40.454Z,18.38
2023-01-20T17:34:08.470Z,20.48
2023-01-20T17:36:36.303Z,17.33
2023-01-20T17:39:05.368Z,19.55
2023-01-20T17:41:33.582Z,18.17
2023-01-20T17:44:01.465Z,18.77
2023-01-20T17:46:31.477Z,19.13
2023-01-20T17:49:00.605Z,24.92
2023-01-20T17:51:30.073Z,20.63
2023-01-20T17:53:58.779Z,20.65
2023-01-20T17:56:26.690Z,19.73
2023-01-20T17:58:55.371Z,20.42
2023-01-20T18:01:24.778Z,19.42
2023-01-20T18:03:56.314Z,20.25
2023-01-20T18:06:25.291Z,20.70
2023-01-20T18:08:55.385Z,22.65
2023-01-20T18:11:24.375Z,21.13
2023-01-20T18:13:55.086Z,27.75
2023-01-20T18:16:24.519Z,19.98
2023-01-20T18:18:58.569Z,22.30
2023-01-20T18:21:29.948Z,19.05
2023-01-20T18:23:58.759Z,21.65
2023-01-20T18:26:29.803Z,22.77
2023-01-20T18:28:59.427Z,19.67
2023-01-20T18:31:28.869Z,18.02
2023-01-20T18:34:00.390Z,25.10
2023-01-20T18:36:30.089Z,25.40
2023-01-20T18:38:59.844Z,26.08
2023-01-20T18:41:29.906Z,28.98
2023-01-20T18:43:58.147Z,28.00
2023-01-20T18:46:26.732Z,28.08
2023-01-20T18:48:55.352Z,23.90
2023-01-20T18:51:26.750Z,31.67
2023-01-20T18:53:56.565Z,26.58
2023-01-20T18:56:24.914Z,29.80
2023-01-20T18:58:54.313Z,29.92
2023-01-20T19:01:24.215Z,26.67
2023-01-20T19:03:52.462Z,31.25
2023-01-20T19:06:25.417Z,27.05
2023-01-20T19:08:53.504Z,29.55
2023-01-20T19:11:23.593Z,28.58
2023-01-20T19:13:53.472Z,32.28
2023-01-20T19:16:23.539Z,26.17
2023-01-20T19:18:53.334Z,27.88
2023-01-20T19:21:21.686Z,22.10
2023-01-20T19:23:54.053Z,28.80
2023-01-20T19:26:23.709Z,23.35
2023-01-20T19:28:57.952Z,24.45
2023-01-20T19:31:26.068Z,24.10
2023-01-20T19:33:54.011Z,27.80
2023-01-20T19:36:22.023Z,27.48
2023-01-20T19:38:52.473Z,21.67
2023-01-20T19:41:22.232Z,23.92
2023-01-20T19:43:55.413Z,21.90
2023-01-20T19:46:24.499Z,25.10
2023-01-20T19:48:52.657Z,25.23
2023-01-20T19:51:21.240Z,27.33
2023-01-20T19:53:50.168Z,25.23
2023-01-20T19:56:20.673Z,32.80
2023-01-20T19:58:49.484Z,31.17
2023-01-20T20:01:20.138Z,28.45
2023-01-20T20:03:49.290Z,32.78
2023-01-20T20:06:26.059Z,29.95
2023-01-20T20:08:57.177Z,27.08
2023-01-20T20:11:26.728Z,27.65
2023-01-20T20:13:56.523Z,27.02
2023-01-20T20:16:25.360Z,25.27
2023-01-20T20:18:53.432Z,26.52
2023-01-20T20:21:21.678Z,29.77
2023-01-20T20:23:51.205Z,25.58
2023-01-20T20:26:19.428Z,32.00
2023-01-20T20:28:48.596Z,25.15
2023-01-20T20:31:16.484Z,25.38
2023-01-20T20:33:46.110Z,29.40
2023-01-20T20:36:15.109Z,25.55
2023-01-20T20:38:43.559Z,29.08
2023-01-20T20:41:11.486Z,26.33
2023-01-20T20:43:39.461Z,28.90
2023-01-20T20:46:09.306Z,27.92
2023-01-20T20:48:37.603Z,35.80
2023-01-20T20:51:06.963Z,26.75
2023-01-20T20:53:34.835Z,29.00
2023-01-20T20:56:06.788Z,25.63
2023-01-20T20:58:34.625Z,31.90
2023-01-20T21:01:02.848Z,25.85
2023-01-20T21:03:32.704Z,34.72
2023-01-20T21:06:00.540Z,30.00
2023-01-20T21:08:28.790Z,31.88
2023-01-20T21:11:00.392Z,35.00
2023-01-20T21:13:28.235Z,40.60
2023-01-20T21:15:59.442Z,32.30
2023-01-20T21:18:27.664Z,33.33
2023-01-20T21:20:59.170Z,31.92
2023-01-20T21:23:28.283Z,35.97
2023-01-20T21:26:01.258Z,36.33
2023-01-20T21:28:29.854Z,30.40
2023-01-20T21:30:57.591Z,30.48
2023-01-20T21:33:25.395Z,28.15
2023-01-20T21:35:53.144Z,29.00
2023-01-20T21:38:22.282Z,27.77
2023-01-20T21:41:01.231Z,32.53
2023-01-20T21:43:54.769Z,31.88
2023-01-20T21:46:22.542Z,30.48
2023-01-20T21:49:07.968Z,31.73
2023-01-20T21:51:53.896Z,33.90
2023-01-20T21:54:23.248Z,38.22
2023-01-20T21:56:52.420Z,30.92
2023-01-20T21:59:20.218Z,29.38
2023-01-20T22:01:48.040Z,30.98
2023-01-20T22:04:16.173Z,34.15
2023-01-20T22:06:44.381Z,31.02
2023-01-20T22:09:12.718Z,33.25
2023-01-20T22:11:41.976Z,31.52
2023-01-20T22:14:11.105Z,34.00
2023-01-20T22:16:38.967Z,35.20
2023-01-20T22:19:06.919Z,31.85
2023-01-20T22:21:34.759Z,31.98
2023-01-20T22:24:03.568Z,32.28
2023-01-20T22:26:31.390Z,32.60
2023-01-20T22:29:00.477Z,36.55
2023-01-20T22:31:30.113Z,35.75
2023-01-20T22:33:59.987Z,43.60
2023-01-20T22:36:27.795Z,37.80
2023-01-20T22:38:55.480Z,39.67
2023-01-20T22:41:23.282Z,34.05
2023-01-20T22:43:51.870Z,32.80
2023-01-20T22:46:23.126Z,51.80
2023-01-20T22:48:50.849Z,33.35
2023-01-20T22:51:20.573Z,38.80
2023-01-20T22:53:48.794Z,37.00
2023-01-20T22:56:18.941Z,38.15
2023-01-20T22:58:47.432Z,34.88
2023-01-20T23:01:16.367Z,35.80
2023-01-20T23:03:46.981Z,28.50
2023-01-20T23:06:15.788Z,33.05
2023-01-20T23:08:43.640Z,33.03
2023-01-20T23:11:13.212Z,30.42
2023-01-20T23:13:41.473Z,33.45
2023-01-20T23:16:14.514Z,35.65
2023-01-20T23:18:42.445Z,36.15
2023-01-20T23:21:11.811Z,31.40
2023-01-20T23:23:39.864Z,34.58
2023-01-20T23:26:12.919Z,60.15
2023-01-20T23:28:40.715Z,38.38
2023-01-20T23:31:10.118Z,33.95
2023-01-20T23:33:38.114Z,41.05
2023-01-20T23:36:08.049Z,41.10
2023-01-20T23:38:37.418Z,34.25
2023-01-20T23:41:05.438Z,36.17
2023-01-20T23:43:34.968Z,30.40
2023-01-20T23:46:05.723Z,42.97
2023-01-20T23:48:34.362Z,40.65
2023-01-20T23:51:03.668Z,36.15
2023-01-20T23:53:33.535Z,40.28
2023-01-20T23:56:04.196Z,37.75
2023-01-20T23:58:32.510Z,34.63
